Iliamna Airport Iliamna US
ICAO: PAIL
IATA:
Category: Medium
Scheduled Services:

Elevation: 192 ft
TransAlt. 18000 ft.

Airport Communications:
ASOS:134.95
ATIS:134.95
ANCHORAGE CNTR:118.8
CTAF:123.6
RDO:123.6
KENAI RDO:121.2
KENAI RDO:122.2

PAIL Zoom In..

If you have problems with the map follow the link
https://www.worldairports.se/pages/airport.php?
ICAO=PAIL

Runways:

(A) RW 07 length 5086 ft width 100 ft
---- / hdg 76

(B) RW 17 length 4800 ft width 100 ft
---- / hdg 172

(C) RW 25 length 5086 ft width 100 ft
---- / hdg 256

(D) RW 35 length 4800 ft width 100 ft
---- / hdg 352

Location; PAIL
Day. 27 / Time. 05.53 Zulu
* Altimeter: 29.46
* Temperature: 4/° c. 39.2°f.
* Wind from: 330° Speed 06 kn.
Dewpoint: 26° c.
Visibility: 10 Statute Miles.
Clouds: Few 7000 ft.

PAIL 270553Z 33006KT 10SM FEW070 M23/M29 A2946 RMK AO2 SLP982 4/026 T12331289 11189 21239 53004


Wind From 330°
Speed 06 kn.

 
 
jpsmedia worldairports.se 2020   terms of use